Terminal Aerodrome Forecast
Issued by NWS

Home | Current Version | Previous Version | Text Only | Print | Product List | Glossary On
Versions: 1 2 3 4 5 6 7 8 9 10 11 12 13
000
FTUS45 KRIW 302336
TAFJAC
TAF
KJAC 302336Z 3100/3124 22014G20KT P6SM FEW080 SCT120
     FM310200 24010KT P6SM FEW120
     FM310700 VRB05KT P6SM SKC
     FM312000 21013KT P6SM FEW200
      AMD LTD TO CLD VIS AND WIND=

USA.gov is the U.S. government's official web portal to all federal, state and local government web resources and services.